Time;durP1;ratioP1;P1;durP2;ratioP2;P2;SDS_P1;SDS_P2;PMS_P1;PMS_P2;Temp;Humidity;BMP_temperature;BMP_pressure;BME280_temperature;BME280_humidity;BME280_pressure;Samples;Min_cycle;Max_cycle;Signal;HPM_P1;HPM_P2
2023/04/16 00:02:13;;;;;;;0.00;0.00;;;;;;;;;;4988966;28;20050;-76
2023/04/16 00:04:39;;;;;;;0.10;0.10;;;;;;;;;;4995773;28;20033;-75
2023/04/16 00:07:04;;;;;;;0.10;0.10;;;;;;;;;;5010202;28;20174;-76
2023/04/16 00:09:30;;;;;;;0.10;0.10;;;;;;;;;;5013114;28;20037;-77
2023/04/16 00:11:55;;;;;;;0.10;0.10;;;;;;;;;;5015506;28;20041;-75
2023/04/16 00:14:21;;;;;;;0.10;0.10;;;;;;;;;;5015800;28;20497;-76
2023/04/16 00:16:46;;;;;;;0.10;0.10;;;;;;;;;;4982049;28;20060;-75
2023/04/16 00:19:13;;;;;;;0.10;0.10;;;;;;;;;;5015568;28;20038;-77
2023/04/16 00:21:39;;;;;;;0.10;0.10;;;;;;;;;;4997377;28;20046;-76
2023/04/16 00:24:05;;;;;;;0.10;0.10;;;;;;;;;;5015772;28;20488;-76
2023/04/16 00:26:30;;;;;;;0.10;0.10;;;;;;;;;;4998014;28;20371;-76
2023/04/16 00:28:55;;;;;;;0.10;0.10;;;;;;;;;;5015817;28;20045;-76
2023/04/16 00:31:25;;;;;;;0.73;0.73;;;;;;;;;;4996315;28;20030;-76
2023/04/16 00:33:53;;;;;;;0.10;0.10;;;;;;;;;;4978103;28;20137;-76
2023/04/16 00:36:19;;;;;;;0.10;0.10;;;;;;;;;;4992358;28;20033;-77
2023/04/16 00:38:45;;;;;;;0.10;0.10;;;;;;;;;;5003877;28;20141;-77
2023/04/16 00:41:11;;;;;;;0.73;0.73;;;;;;;;;;4980197;28;20089;-76
2023/04/16 00:43:36;;;;;;;0.40;0.40;;;;;;;;;;5006032;28;20038;-77
2023/04/16 00:46:03;;;;;;;0.10;0.10;;;;;;;;;;4997747;28;20061;-79
2023/04/16 00:48:31;;;;;;;0.10;0.10;;;;;;;;;;5009936;28;20035;-76
2023/04/16 00:50:57;;;;;;;1.25;0.45;;;;;;;;;;4993693;28;20496;-75
2023/04/16 00:53:23;;;;;;;0.10;0.10;;;;;;;;;;5011801;28;20121;-76
2023/04/16 00:55:49;;;;;;;0.10;0.10;;;;;;;;;;5003852;28;20113;-76
2023/04/16 00:58:15;;;;;;;0.10;0.10;;;;;;;;;;4961832;28;20046;-75
2023/04/16 01:00:40;;;;;;;0.10;0.10;;;;;;;;;;4995605;28;20034;-77
2023/04/16 01:03:06;;;;;;;0.10;0.10;;;;;;;;;;4995523;28;20034;-76
2023/04/16 01:05:31;;;;;;;0.10;0.10;;;;;;;;;;4995711;28;20045;-74
2023/04/16 01:08:00;;;;;;;0.10;0.10;;;;;;;;;;4997376;28;20050;-75
2023/04/16 01:10:25;;;;;;;0.10;0.10;;;;;;;;;;4995100;28;20038;-76
2023/04/16 01:12:51;;;;;;;0.10;0.10;;;;;;;;;;4995133;28;20147;-77
2023/04/16 01:15:16;;;;;;;0.10;0.10;;;;;;;;;;5008127;28;20511;-77
2023/04/16 01:17:43;;;;;;;1.30;0.30;;;;;;;;;;4999081;28;20042;-77
2023/04/16 01:20:09;;;;;;;0.10;0.10;;;;;;;;;;4995067;28;20069;-77
2023/04/16 01:22:34;;;;;;;0.10;0.10;;;;;;;;;;4994939;28;20035;-77
2023/04/16 01:24:59;;;;;;;0.10;0.10;;;;;;;;;;4994731;28;20113;-75
2023/04/16 01:27:25;;;;;;;0.10;0.10;;;;;;;;;;4977440;28;20045;-76
2023/04/16 01:29:51;;;;;;;0.10;0.10;;;;;;;;;;4961565;28;20502;-76
2023/04/16 01:32:21;;;;;;;0.10;0.10;;;;;;;;;;4977487;28;20049;-76
2023/04/16 01:34:47;;;;;;;0.10;0.10;;;;;;;;;;4994862;28;20382;-77
2023/04/16 01:37:13;;;;;;;0.17;0.17;;;;;;;;;;4978401;28;20486;-76
2023/04/16 01:39:38;;;;;;;0.10;0.10;;;;;;;;;;4977410;28;20035;-74
2023/04/16 01:42:03;;;;;;;0.10;0.10;;;;;;;;;;4977207;28;20053;-76
2023/04/16 01:44:29;;;;;;;0.00;0.00;;;;;;;;;;5007059;28;20030;-75
2023/04/16 01:46:55;;;;;;;0.10;0.10;;;;;;;;;;4979878;28;20037;-75
2023/04/16 01:49:21;;;;;;;0.10;0.10;;;;;;;;;;5014272;28;20104;-78
2023/04/16 01:51:46;;;;;;;0.20;0.20;;;;;;;;;;5012962;28;20441;-77
2023/04/16 01:54:12;;;;;;;0.10;0.10;;;;;;;;;;4996407;28;20044;-79
2023/04/16 01:56:38;;;;;;;0.10;0.10;;;;;;;;;;4995718;28;20062;-83
2023/04/16 01:59:04;;;;;;;0.10;0.10;;;;;;;;;;4980375;28;20069;-83
2023/04/16 02:01:35;;;;;;;0.10;0.10;;;;;;;;;;4992597;28;20037;-83
2023/04/16 02:04:01;;;;;;;0.10;0.10;;;;;;;;;;4993018;28;20429;-83
2023/04/16 02:06:27;;;;;;;0.10;0.10;;;;;;;;;;4996674;28;20037;-83
2023/04/16 02:08:52;;;;;;;0.10;0.10;;;;;;;;;;4996403;28;20030;-82
2023/04/16 02:11:17;;;;;;;0.10;0.10;;;;;;;;;;4979660;28;20040;-82
2023/04/16 02:13:44;;;;;;;0.10;0.10;;;;;;;;;;4996675;28;20125;-80
2023/04/16 02:16:09;;;;;;;0.10;0.10;;;;;;;;;;4996313;28;20116;-77
2023/04/16 02:18:49;;;;;;;0.10;0.10;;;;;;;;;;4981713;28;20038;-77
2023/04/16 02:21:16;;;;;;;0.10;0.10;;;;;;;;;;4996257;28;20038;-77
2023/04/16 02:23:46;;;;;;;0.10;0.10;;;;;;;;;;5013497;28;20057;-77
2023/04/16 02:26:12;;;;;;;0.10;0.10;;;;;;;;;;4996283;28;20026;-79
2023/04/16 02:28:38;;;;;;;0.10;0.10;;;;;;;;;;4995935;28;20044;-79
2023/04/16 02:31:04;;;;;;;0.10;0.10;;;;;;;;;;5011246;28;20405;-80
2023/04/16 02:33:38;;;;;;;0.10;0.10;;;;;;;;;;5013782;28;20096;-85
2023/04/16 02:36:04;;;;;;;0.10;0.10;;;;;;;;;;4995964;28;20420;-84
2023/04/16 02:38:29;;;;;;;0.10;0.10;;;;;;;;;;4996225;28;20038;-84
2023/04/16 02:40:55;;;;;;;0.10;0.10;;;;;;;;;;4994760;28;20030;-77
2023/04/16 02:43:20;;;;;;;0.10;0.10;;;;;;;;;;4995770;28;20482;-76
2023/04/16 02:45:46;;;;;;;0.10;0.10;;;;;;;;;;5013399;28;20034;-76
2023/04/16 02:48:12;;;;;;;0.10;0.10;;;;;;;;;;4995680;28;20066;-77
2023/04/16 02:50:37;;;;;;;0.10;0.10;;;;;;;;;;5013372;28;20026;-76
2023/04/16 02:53:03;;;;;;;0.10;0.10;;;;;;;;;;4979670;28;20034;-77
2023/04/16 02:55:28;;;;;;;0.10;0.10;;;;;;;;;;4979741;28;20034;-76
2023/04/16 02:57:54;;;;;;;0.10;0.10;;;;;;;;;;4979591;28;20069;-76
2023/04/16 03:00:19;;;;;;;0.10;0.10;;;;;;;;;;5012160;28;20064;-77
2023/04/16 03:02:45;;;;;;;0.10;0.10;;;;;;;;;;4991983;28;20034;-77
2023/04/16 03:05:11;;;;;;;0.10;0.10;;;;;;;;;;4991900;28;20521;-76
2023/04/16 03:07:38;;;;;;;0.10;0.10;;;;;;;;;;4991374;28;21094;-76
2023/04/16 03:10:04;;;;;;;0.10;0.10;;;;;;;;;;5009623;28;20061;-77
2023/04/16 03:12:29;;;;;;;0.10;0.10;;;;;;;;;;5008519;28;20390;-74
2023/04/16 03:14:55;;;;;;;0.10;0.10;;;;;;;;;;5008970;28;20036;-74
2023/04/16 03:17:20;;;;;;;0.10;0.10;;;;;;;;;;4990890;28;20109;-74
2023/04/16 03:19:46;;;;;;;0.17;0.17;;;;;;;;;;4991545;28;20057;-75
2023/04/16 03:22:11;;;;;;;0.10;0.10;;;;;;;;;;4991751;28;20184;-74
2023/04/16 03:24:37;;;;;;;0.10;0.10;;;;;;;;;;5008452;28;20382;-75
2023/04/16 03:27:02;;;;;;;0.30;0.30;;;;;;;;;;5009326;28;20485;-75
2023/04/16 03:29:28;;;;;;;0.10;0.10;;;;;;;;;;4991614;28;20397;-75
2023/04/16 03:31:55;;;;;;;0.10;0.10;;;;;;;;;;5009155;28;20042;-75
2023/04/16 03:34:22;;;;;;;0.10;0.10;;;;;;;;;;4991000;28;20088;-76
2023/04/16 03:36:47;;;;;;;0.40;0.40;;;;;;;;;;4991563;28;20133;-75
2023/04/16 03:39:13;;;;;;;0.10;0.10;;;;;;;;;;4991310;28;20036;-75
2023/04/16 03:41:38;;;;;;;0.10;0.10;;;;;;;;;;5010302;28;20060;-75
2023/04/16 03:44:04;;;;;;;0.10;0.10;;;;;;;;;;4978527;28;20512;-75
2023/04/16 03:46:31;;;;;;;0.20;0.20;;;;;;;;;;4995502;28;20041;-77
2023/04/16 03:48:56;;;;;;;0.10;0.10;;;;;;;;;;5015123;28;20030;-75
2023/04/16 03:51:22;;;;;;;0.10;0.10;;;;;;;;;;4997303;28;20040;-75
2023/04/16 03:53:48;;;;;;;0.10;0.10;;;;;;;;;;5013994;28;20034;-77
2023/04/16 03:56:13;;;;;;;0.10;0.10;;;;;;;;;;4995226;28;20041;-77
2023/04/16 03:58:39;;;;;;;0.10;0.10;;;;;;;;;;5011660;28;20034;-77
2023/04/16 04:01:06;;;;;;;0.10;0.10;;;;;;;;;;4993542;28;20045;-76
2023/04/16 04:03:31;;;;;;;0.10;0.10;;;;;;;;;;4994721;28;20034;-76
2023/04/16 04:05:57;;;;;;;0.10;0.10;;;;;;;;;;4978293;28;20038;-76
2023/04/16 04:08:26;;;;;;;0.10;0.10;;;;;;;;;;4978534;28;20067;-76
2023/04/16 04:10:52;;;;;;;0.10;0.10;;;;;;;;;;4994463;28;20034;-77
2023/04/16 04:13:19;;;;;;;0.10;0.10;;;;;;;;;;5010654;28;20065;-76
2023/04/16 04:15:46;;;;;;;0.10;0.10;;;;;;;;;;4994099;28;20034;-77
2023/04/16 04:18:12;;;;;;;0.10;0.10;;;;;;;;;;4994397;28;20087;-77
2023/04/16 04:20:38;;;;;;;0.10;0.10;;;;;;;;;;4978479;28;20466;-77
2023/04/16 04:23:04;;;;;;;0.10;0.10;;;;;;;;;;4994361;28;20038;-76
2023/04/16 04:25:29;;;;;;;1.23;1.17;;;;;;;;;;5011963;28;20029;-77
2023/04/16 04:27:57;;;;;;;0.10;0.10;;;;;;;;;;4993544;28;20034;-76
2023/04/16 04:30:23;;;;;;;0.10;0.10;;;;;;;;;;5012033;28;20374;-75
2023/04/16 04:32:49;;;;;;;0.22;0.22;;;;;;;;;;5011593;28;20038;-75
2023/04/16 04:35:15;;;;;;;0.10;0.10;;;;;;;;;;5010047;28;20057;-75
2023/04/16 04:37:41;;;;;;;0.10;0.10;;;;;;;;;;5011474;28;20062;-75
2023/04/16 04:40:13;;;;;;;0.10;0.10;;;;;;;;;;4993938;28;20033;-75
2023/04/16 04:42:38;;;;;;;0.10;0.10;;;;;;;;;;4993141;28;20034;-76
2023/04/16 04:45:05;;;;;;;0.10;0.10;;;;;;;;;;5010693;28;20042;-78
2023/04/16 04:47:32;;;;;;;0.10;0.10;;;;;;;;;;4991737;28;20067;-78
2023/04/16 04:49:58;;;;;;;0.43;0.43;;;;;;;;;;4977715;28;20545;-76
2023/04/16 04:52:24;;;;;;;0.10;0.10;;;;;;;;;;4977371;28;20183;-75
2023/04/16 04:54:50;;;;;;;0.20;0.20;;;;;;;;;;5010749;28;20394;-74
2023/04/16 04:57:15;;;;;;;0.20;0.20;;;;;;;;;;4993401;28;20050;-74
2023/04/16 04:59:41;;;;;;;0.10;0.10;;;;;;;;;;5009751;28;20058;-75
2023/04/16 05:02:09;;;;;;;0.10;0.10;;;;;;;;;;4992699;28;20124;-75
2023/04/16 05:04:34;;;;;;;0.20;0.20;;;;;;;;;;5009115;28;20454;-75
2023/04/16 05:07:01;;;;;;;0.10;0.10;;;;;;;;;;4989716;28;20430;-76
2023/04/16 05:09:26;;;;;;;0.10;0.10;;;;;;;;;;5008632;28;20486;-76
2023/04/16 05:11:52;;;;;;;17.52;4.65;;;;;;;;;;5008108;28;20033;-75
2023/04/16 05:14:17;;;;;;;0.55;0.55;;;;;;;;;;5002196;28;20046;-75
2023/04/16 05:16:42;;;;;;;0.10;0.10;;;;;;;;;;5009848;28;20116;-74
2023/04/16 05:19:08;;;;;;;0.10;0.10;;;;;;;;;;5008808;28;20037;-74
2023/04/16 05:21:33;;;;;;;0.10;0.10;;;;;;;;;;4968478;28;20030;-75
2023/04/16 05:23:59;;;;;;;0.10;0.10;;;;;;;;;;4991542;28;20473;-76
2023/04/16 05:26:24;;;;;;;0.10;0.10;;;;;;;;;;4991482;28;20036;-75
2023/04/16 05:28:50;;;;;;;0.10;0.10;;;;;;;;;;4973859;28;20394;-75
2023/04/16 05:31:15;;;;;;;0.38;0.38;;;;;;;;;;4991345;28;20034;-75
2023/04/16 05:33:40;;;;;;;0.20;0.20;;;;;;;;;;4990907;28;20038;-75
2023/04/16 05:36:06;;;;;;;0.10;0.10;;;;;;;;;;4999691;28;20041;-75
2023/04/16 05:38:31;;;;;;;0.10;0.10;;;;;;;;;;5002885;28;20101;-75
2023/04/16 05:40:57;;;;;;;0.10;0.10;;;;;;;;;;4998466;28;20026;-74
2023/04/16 05:43:22;;;;;;;0.10;0.10;;;;;;;;;;5010361;28;20033;-77
2023/04/16 05:45:48;;;;;;;1.67;1.58;;;;;;;;;;5010821;28;20282;-75
2023/04/16 05:48:13;;;;;;;0.10;0.10;;;;;;;;;;4976189;28;20026;-74
2023/04/16 05:50:39;;;;;;;0.10;0.10;;;;;;;;;;4992615;28;20036;-73
2023/04/16 05:53:05;;;;;;;0.10;0.10;;;;;;;;;;4992412;28;20099;-74
2023/04/16 05:55:31;;;;;;;0.10;0.10;;;;;;;;;;5007301;28;20092;-74
2023/04/16 05:57:56;;;;;;;0.10;0.10;;;;;;;;;;5001346;28;20030;-74
2023/04/16 06:00:22;;;;;;;0.10;0.10;;;;;;;;;;5001533;28;20085;-76
2023/04/16 06:02:48;;;;;;;0.10;0.10;;;;;;;;;;4976545;28;20066;-73
2023/04/16 06:05:14;;;;;;;0.10;0.10;;;;;;;;;;5001530;28;20069;-73
2023/04/16 06:07:39;;;;;;;0.08;0.08;;;;;;;;;;5007267;28;20129;-75
2023/04/16 06:10:05;;;;;;;0.10;0.10;;;;;;;;;;5005345;28;20473;-73
2023/04/16 06:12:31;;;;;;;0.63;0.38;;;;;;;;;;4999680;28;20040;-73
2023/04/16 06:14:57;;;;;;;0.10;0.10;;;;;;;;;;4989037;28;20541;-74
2023/04/16 06:17:22;;;;;;;0.17;0.17;;;;;;;;;;4990133;28;20183;-75
2023/04/16 06:19:48;;;;;;;0.10;0.10;;;;;;;;;;4989953;28;20035;-74
2023/04/16 06:22:13;;;;;;;0.10;0.10;;;;;;;;;;4973218;28;20845;-73
2023/04/16 06:24:39;;;;;;;0.10;0.10;;;;;;;;;;4990264;28;20082;-74
2023/04/16 06:27:04;;;;;;;0.10;0.10;;;;;;;;;;4989942;28;20053;-74
2023/04/16 06:29:30;;;;;;;0.10;0.10;;;;;;;;;;4990074;28;20037;-78
2023/04/16 06:31:55;;;;;;;0.10;0.10;;;;;;;;;;4990577;28;20057;-74
2023/04/16 06:34:21;;;;;;;0.10;0.10;;;;;;;;;;4990090;28;20026;-74
2023/04/16 06:36:46;;;;;;;0.10;0.10;;;;;;;;;;4989964;28;20045;-72
2023/04/16 06:39:12;;;;;;;0.10;0.10;;;;;;;;;;4988687;28;20482;-73
2023/04/16 06:41:37;;;;;;;0.10;0.10;;;;;;;;;;4990355;28;20390;-73
2023/04/16 06:44:02;;;;;;;0.10;0.10;;;;;;;;;;4990100;28;20040;-74
2023/04/16 06:46:28;;;;;;;0.10;0.10;;;;;;;;;;4989926;28;20235;-73
2023/04/16 06:48:53;;;;;;;0.20;0.20;;;;;;;;;;4990105;28;20034;-74
2023/04/16 06:51:19;;;;;;;0.10;0.10;;;;;;;;;;4992480;28;20150;-75
2023/04/16 06:53:44;;;;;;;0.20;0.20;;;;;;;;;;4998553;28;20034;-73
2023/04/16 06:56:10;;;;;;;0.10;0.10;;;;;;;;;;4989697;28;20030;-73
2023/04/16 06:58:35;;;;;;;0.10;0.10;;;;;;;;;;4989768;28;20038;-72
2023/04/16 07:01:01;;;;;;;0.20;0.20;;;;;;;;;;4989541;28;20048;-73
2023/04/16 07:03:26;;;;;;;0.10;0.10;;;;;;;;;;4989646;28;20038;-74
2023/04/16 07:05:52;;;;;;;0.10;0.10;;;;;;;;;;4989361;28;20034;-76
2023/04/16 07:08:17;;;;;;;0.10;0.10;;;;;;;;;;4989808;28;20501;-76
2023/04/16 07:10:43;;;;;;;0.10;0.10;;;;;;;;;;4989954;28;20125;-76
2023/04/16 07:13:08;;;;;;;0.20;0.20;;;;;;;;;;4971845;28;20038;-77
2023/04/16 07:15:34;;;;;;;0.20;0.20;;;;;;;;;;4972293;28;20034;-76
2023/04/16 07:17:59;;;;;;;1.35;0.30;;;;;;;;;;4975665;28;20033;-78
2023/04/16 07:20:25;;;;;;;0.10;0.10;;;;;;;;;;4993663;28;20038;-75
2023/04/16 07:22:50;;;;;;;0.90;0.45;;;;;;;;;;4976027;28;20045;-76
2023/04/16 07:25:16;;;;;;;0.20;0.20;;;;;;;;;;4993471;28;20034;-76
2023/04/16 07:27:41;;;;;;;1.27;0.20;;;;;;;;;;4975771;28;20042;-76
2023/04/16 07:30:08;;;;;;;0.32;0.20;;;;;;;;;;4993601;28;20040;-77
2023/04/16 07:32:33;;;;;;;1.15;0.20;;;;;;;;;;4993913;28;20362;-75
2023/04/16 07:34:59;;;;;;;0.20;0.20;;;;;;;;;;5006665;28;20556;-76
2023/04/16 07:37:24;;;;;;;0.93;0.35;;;;;;;;;;5012383;28;20100;-77
2023/04/16 07:39:51;;;;;;;0.10;0.10;;;;;;;;;;5012593;28;20156;-76
2023/04/16 07:42:16;;;;;;;1.10;0.30;;;;;;;;;;4990047;28;20030;-76
2023/04/16 07:44:42;;;;;;;1.55;0.68;;;;;;;;;;5012563;28;20034;-77
2023/04/16 07:47:07;;;;;;;0.20;0.20;;;;;;;;;;5012444;28;20105;-77
2023/04/16 07:49:32;;;;;;;0.10;0.10;;;;;;;;;;5012666;28;20379;-75
2023/04/16 07:51:58;;;;;;;0.10;0.10;;;;;;;;;;5012465;28;20148;-75
2023/04/16 07:54:23;;;;;;;0.77;0.35;;;;;;;;;;4994946;28;20040;-74
2023/04/16 07:56:48;;;;;;;1.13;0.22;;;;;;;;;;5012187;28;20034;-73
2023/04/16 07:59:14;;;;;;;0.10;0.10;;;;;;;;;;5011394;28;20030;-73
2023/04/16 08:01:39;;;;;;;1.30;0.17;;;;;;;;;;5007999;28;20135;-74
2023/04/16 08:04:05;;;;;;;0.30;0.20;;;;;;;;;;5008426;28;20037;-73
2023/04/16 08:06:30;;;;;;;1.52;0.45;;;;;;;;;;4994937;28;20549;-72
2023/04/16 08:08:56;;;;;;;0.40;0.40;;;;;;;;;;5009620;28;20112;-73
2023/04/16 08:11:21;;;;;;;0.57;0.50;;;;;;;;;;5012592;28;20381;-72
2023/04/16 08:13:46;;;;;;;0.10;0.10;;;;;;;;;;4992950;28;20050;-73
2023/04/16 08:16:12;;;;;;;0.10;0.10;;;;;;;;;;5012005;28;20037;-74
2023/04/16 08:18:37;;;;;;;0.10;0.10;;;;;;;;;;4990882;28;20084;-73
2023/04/16 08:21:03;;;;;;;0.10;0.10;;;;;;;;;;5011737;28;20038;-73
2023/04/16 08:23:28;;;;;;;0.10;0.10;;;;;;;;;;4992421;28;20045;-75
2023/04/16 08:25:54;;;;;;;0.45;0.30;;;;;;;;;;4976560;28;20085;-72
2023/04/16 08:28:22;;;;;;;0.30;0.30;;;;;;;;;;4992746;28;20052;-74
2023/04/16 08:30:47;;;;;;;0.10;0.10;;;;;;;;;;4993722;28;20113;-73
2023/04/16 08:33:18;;;;;;;0.35;0.22;;;;;;;;;;4975696;28;20145;-74
2023/04/16 08:35:49;;;;;;;0.10;0.10;;;;;;;;;;5010612;28;20026;-74
2023/04/16 08:38:23;;;;;;;0.20;0.20;;;;;;;;;;5011526;28;20111;-73
2023/04/16 08:40:52;;;;;;;0.20;0.20;;;;;;;;;;4993805;28;20390;-74
2023/04/16 08:43:28;;;;;;;0.10;0.10;;;;;;;;;;5011385;28;20025;-74
2023/04/16 08:45:57;;;;;;;0.10;0.10;;;;;;;;;;5011152;28;20042;-74
2023/04/16 08:48:26;;;;;;;0.13;0.13;;;;;;;;;;5009975;28;20038;-74
2023/04/16 08:50:54;;;;;;;0.10;0.10;;;;;;;;;;4993841;28;20052;-74
2023/04/16 08:53:31;;;;;;;0.20;0.20;;;;;;;;;;5011210;28;20026;-73
2023/04/16 08:56:02;;;;;;;0.20;0.20;;;;;;;;;;4993715;28;20033;-74
2023/04/16 08:58:29;;;;;;;0.10;0.10;;;;;;;;;;4993696;28;20038;-74
2023/04/16 09:00:57;;;;;;;0.20;0.20;;;;;;;;;;4993361;28;20042;-73
2023/04/16 09:03:23;;;;;;;0.60;0.30;;;;;;;;;;5010959;28;20037;-74
2023/04/16 09:05:52;;;;;;;0.20;0.20;;;;;;;;;;5011224;28;20117;-73
2023/04/16 09:08:18;;;;;;;0.20;0.20;;;;;;;;;;5011211;28;20140;-74
2023/04/16 09:10:46;;;;;;;0.20;0.20;;;;;;;;;;5010970;28;20073;-73
2023/04/16 09:13:23;;;;;;;0.20;0.20;;;;;;;;;;4993069;28;20481;-74
2023/04/16 09:15:56;;;;;;;0.28;0.28;;;;;;;;;;4993716;28;20096;-73
2023/04/16 09:18:21;;;;;;;0.15;0.15;;;;;;;;;;5011093;28;20539;-74
2023/04/16 09:20:50;;;;;;;0.20;0.20;;;;;;;;;;5010996;28;20038;-73
2023/04/16 09:23:16;;;;;;;0.20;0.20;;;;;;;;;;5010876;28;20544;-73
2023/04/16 09:25:41;;;;;;;0.20;0.20;;;;;;;;;;5011270;28;20121;-73
2023/04/16 09:28:07;;;;;;;0.20;0.20;;;;;;;;;;5010323;28;20030;-73
2023/04/16 09:30:33;;;;;;;0.22;0.20;;;;;;;;;;5010866;28;20045;-73
2023/04/16 09:33:16;;;;;;;0.20;0.20;;;;;;;;;;5010697;28;20030;-72
2023/04/16 09:35:46;;;;;;;0.30;0.25;;;;;;;;;;5010820;28;20038;-73
2023/04/16 09:38:11;;;;;;;0.10;0.10;;;;;;;;;;5010796;28;20034;-74
2023/04/16 09:40:38;;;;;;;0.10;0.10;;;;;;;;;;5010213;28;20397;-74
2023/04/16 09:43:13;;;;;;;0.10;0.10;;;;;;;;;;5009627;28;20069;-73
2023/04/16 09:45:52;;;;;;;0.88;0.73;;;;;;;;;;5010719;28;20465;-73
2023/04/16 09:48:27;;;;;;;0.65;0.30;;;;;;;;;;5009935;28;20045;-72
2023/04/16 09:50:52;;;;;;;2.75;0.20;;;;;;;;;;4992698;28;20037;-74
2023/04/16 09:53:25;;;;;;;0.30;0.13;;;;;;;;;;4992353;28;20492;-73
2023/04/16 09:55:51;;;;;;;0.20;0.20;;;;;;;;;;5010074;28;20030;-73
2023/04/16 09:58:19;;;;;;;0.10;0.10;;;;;;;;;;5010187;28;20544;-74
2023/04/16 10:00:45;;;;;;;0.20;0.20;;;;;;;;;;4992563;28;20026;-73
2023/04/16 10:03:11;;;;;;;8.85;0.70;;;;;;;;;;5010387;28;20045;-73
2023/04/16 10:05:36;;;;;;;0.10;0.10;;;;;;;;;;4992368;28;20061;-74
2023/04/16 10:08:02;;;;;;;0.10;0.10;;;;;;;;;;5009951;28;20037;-71
2023/04/16 10:10:28;;;;;;;0.10;0.10;;;;;;;;;;5010087;28;20082;-73
2023/04/16 10:12:54;;;;;;;0.10;0.10;;;;;;;;;;5009810;28;20058;-73
2023/04/16 10:15:20;;;;;;;0.10;0.10;;;;;;;;;;5009977;28;20040;-74
2023/04/16 10:17:45;;;;;;;0.13;0.13;;;;;;;;;;5009253;28;20136;-73
2023/04/16 10:20:11;;;;;;;0.75;0.32;;;;;;;;;;5011237;28;20098;-73
2023/04/16 10:22:36;;;;;;;0.10;0.10;;;;;;;;;;5011653;28;20053;-72
2023/04/16 10:25:02;;;;;;;0.45;0.45;;;;;;;;;;5010071;28;20034;-72
2023/04/16 10:27:28;;;;;;;0.10;0.10;;;;;;;;;;4992402;28;20045;-72
2023/04/16 10:29:54;;;;;;;0.15;0.15;;;;;;;;;;5009679;28;20112;-73
2023/04/16 10:32:20;;;;;;;0.10;0.10;;;;;;;;;;5009581;28;20121;-73
2023/04/16 10:34:46;;;;;;;0.20;0.20;;;;;;;;;;5009735;28;20108;-72
2023/04/16 10:37:11;;;;;;;0.20;0.20;;;;;;;;;;5009296;28;20458;-73
2023/04/16 10:39:37;;;;;;;0.10;0.10;;;;;;;;;;5009584;28;20022;-76
2023/04/16 10:42:11;;;;;;;0.17;0.17;;;;;;;;;;5010274;28;20064;-73
2023/04/16 10:44:38;;;;;;;0.20;0.20;;;;;;;;;;5010320;28;20087;-72
2023/04/16 10:47:13;;;;;;;0.20;0.20;;;;;;;;;;4991649;28;20038;-75
2023/04/16 10:49:39;;;;;;;0.20;0.20;;;;;;;;;;5009798;28;20393;-74
2023/04/16 10:52:15;;;;;;;0.20;0.20;;;;;;;;;;5011335;28;20021;-74
2023/04/16 10:54:41;;;;;;;0.65;0.47;;;;;;;;;;4979983;28;20042;-73
2023/04/16 10:57:13;;;;;;;0.10;0.10;;;;;;;;;;5013464;28;20486;-73
2023/04/16 10:59:41;;;;;;;0.30;0.30;;;;;;;;;;5013522;28;20038;-73
2023/04/16 11:02:08;;;;;;;4.45;0.80;;;;;;;;;;4995912;28;20033;-73
2023/04/16 11:04:37;;;;;;;1.13;0.22;;;;;;;;;;4995907;28;20042;-72
2023/04/16 11:07:03;;;;;;;;;;;;;;;;;;5013698;28;20088;-72
2023/04/16 11:09:48;;;;;;;0.15;0.15;;;;;;;;;;5013400;28;19922;-72
2023/04/16 11:12:15;;;;;;;0.20;0.20;;;;;;;;;;5013090;28;20033;-72
2023/04/16 11:14:40;;;;;;;0.47;0.43;;;;;;;;;;4979445;28;20057;-72
2023/04/16 11:17:06;;;;;;;0.45;0.30;;;;;;;;;;5012933;28;20074;-73
2023/04/16 11:19:33;;;;;;;0.20;0.20;;;;;;;;;;4995466;28;20026;-72
2023/04/16 11:21:58;;;;;;;2.70;1.35;;;;;;;;;;5006958;28;20446;-73
2023/04/16 11:24:28;;;;;;;0.47;0.30;;;;;;;;;;5000343;28;20026;-72
2023/04/16 11:26:53;;;;;;;;;;;;;;;;;;5013380;28;20481;-73
2023/04/16 11:29:19;;;;;;;0.20;0.20;;;;;;;;;;5012794;28;19924;-72
2023/04/16 11:31:51;;;;;;;0.30;0.30;;;;;;;;;;5012792;28;20469;-72
2023/04/16 11:34:17;;;;;;;0.20;0.20;;;;;;;;;;5012758;28;20040;-72
2023/04/16 11:36:46;;;;;;;0.77;0.50;;;;;;;;;;4995680;28;20029;-72
2023/04/16 11:39:11;;;;;;;0.20;0.20;;;;;;;;;;5012734;28;20037;-73
2023/04/16 11:41:44;;;;;;;0.20;0.20;;;;;;;;;;4993105;28;20088;-74
2023/04/16 11:44:30;;;;;;;0.20;0.20;;;;;;;;;;4995117;28;20042;-74
2023/04/16 11:46:56;;;;;;;0.93;0.25;;;;;;;;;;5008862;28;20489;-72
2023/04/16 11:49:30;;;;;;;0.10;0.10;;;;;;;;;;5009655;28;20036;-72
2023/04/16 11:51:56;;;;;;;0.10;0.10;;;;;;;;;;4984977;28;20034;-72
2023/04/16 11:54:22;;;;;;;0.20;0.20;;;;;;;;;;4991496;28;20045;-72
2023/04/16 11:56:48;;;;;;;0.52;0.40;;;;;;;;;;5008262;28;20057;-73
2023/04/16 11:59:15;;;;;;;1.17;0.85;;;;;;;;;;5009666;28;20061;-72
2023/04/16 12:01:44;;;;;;;0.85;0.38;;;;;;;;;;5001520;28;20477;-73
2023/04/16 12:04:10;;;;;;;0.43;0.43;;;;;;;;;;4990537;28;20026;-72
2023/04/16 12:06:36;;;;;;;0.10;0.10;;;;;;;;;;5002749;28;20038;-72
2023/04/16 12:09:24;;;;;;;0.20;0.20;;;;;;;;;;5005120;28;20033;-74
2023/04/16 12:11:50;;;;;;;0.20;0.20;;;;;;;;;;4994394;28;20560;-72
2023/04/16 12:14:16;;;;;;;0.10;0.10;;;;;;;;;;5012237;28;20034;-73
2023/04/16 12:16:42;;;;;;;0.20;0.20;;;;;;;;;;5006952;28;20088;-73
2023/04/16 12:19:11;;;;;;;0.20;0.20;;;;;;;;;;5009298;28;20049;-73
2023/04/16 12:21:43;;;;;;;0.47;0.47;;;;;;;;;;4969127;28;20036;-73
2023/04/16 12:24:12;;;;;;;0.10;0.10;;;;;;;;;;5002332;28;20121;-74
2023/04/16 12:26:42;;;;;;;0.20;0.20;;;;;;;;;;4993069;28;20069;-73
2023/04/16 12:29:18;;;;;;;0.20;0.20;;;;;;;;;;5001363;28;20099;-72
2023/04/16 12:31:44;;;;;;;0.60;0.30;;;;;;;;;;4991430;28;20045;-73
2023/04/16 12:34:11;;;;;;;0.20;0.20;;;;;;;;;;4998289;28;20053;-73
2023/04/16 12:36:37;;;;;;;0.43;0.43;;;;;;;;;;4990957;28;20042;-72
2023/04/16 12:39:03;;;;;;;0.52;0.30;;;;;;;;;;4974443;28;20033;-73
2023/04/16 12:41:28;;;;;;;0.30;0.30;;;;;;;;;;4998496;28;20030;-72
2023/04/16 12:44:13;;;;;;;0.10;0.10;;;;;;;;;;4988450;28;20404;-75
2023/04/16 12:46:39;;;;;;;0.60;0.25;;;;;;;;;;4992896;28;20169;-74
2023/04/16 12:49:05;;;;;;;0.10;0.10;;;;;;;;;;5008841;28;20034;-73
2023/04/16 12:51:31;;;;;;;0.20;0.20;;;;;;;;;;5003508;28;20068;-73
2023/04/16 12:53:56;;;;;;;0.63;0.30;;;;;;;;;;4986234;28;20033;-74
2023/04/16 12:56:22;;;;;;;1.88;0.20;;;;;;;;;;5008520;28;20021;-74
2023/04/16 12:58:50;;;;;;;0.80;0.30;;;;;;;;;;4993471;28;20433;-73
2023/04/16 13:01:17;;;;;;;0.15;0.15;;;;;;;;;;5003631;28;20393;-74
2023/04/16 13:03:42;;;;;;;3.53;1.00;;;;;;;;;;5009962;28;20038;-73
2023/04/16 13:06:08;;;;;;;0.30;0.30;;;;;;;;;;4992012;28;20045;-74
2023/04/16 13:08:33;;;;;;;0.17;0.17;;;;;;;;;;5004610;28;20026;-74
2023/04/16 13:10:59;;;;;;;0.20;0.20;;;;;;;;;;5003337;28;20042;-73
2023/04/16 13:13:25;;;;;;;0.47;0.30;;;;;;;;;;5005329;28;20169;-73
2023/04/16 13:15:50;;;;;;;0.20;0.20;;;;;;;;;;5002516;28;20035;-73
2023/04/16 13:18:16;;;;;;;0.10;0.10;;;;;;;;;;5007557;28;20037;-73
2023/04/16 13:20:41;;;;;;;0.20;0.20;;;;;;;;;;4999524;28;20496;-73
2023/04/16 13:23:07;;;;;;;0.20;0.20;;;;;;;;;;5004539;28;20026;-73
2023/04/16 13:25:32;;;;;;;0.20;0.20;;;;;;;;;;5008724;28;20445;-73
2023/04/16 13:27:58;;;;;;;0.47;0.32;;;;;;;;;;5006622;28;20083;-73
2023/04/16 13:30:24;;;;;;;0.55;0.40;;;;;;;;;;5001721;28;20434;-72
2023/04/16 13:32:49;;;;;;;0.20;0.20;;;;;;;;;;5003545;28;20109;-72
2023/04/16 13:35:15;;;;;;;0.20;0.20;;;;;;;;;;5006623;28;20040;-73
2023/04/16 13:37:40;;;;;;;0.20;0.20;;;;;;;;;;5004156;28;20049;-72
2023/04/16 13:40:06;;;;;;;0.20;0.20;;;;;;;;;;5009092;28;20037;-72
2023/04/16 13:42:32;;;;;;;0.22;0.22;;;;;;;;;;4992658;28;20125;-74
2023/04/16 13:44:57;;;;;;;0.20;0.20;;;;;;;;;;4992840;28;20069;-73
2023/04/16 13:47:23;;;;;;;0.10;0.10;;;;;;;;;;5009016;28;20040;-72
2023/04/16 13:49:48;;;;;;;0.20;0.20;;;;;;;;;;5010135;28;20026;-72
2023/04/16 13:52:14;;;;;;;0.25;0.25;;;;;;;;;;4991961;28;20120;-72
2023/04/16 13:54:40;;;;;;;0.10;0.10;;;;;;;;;;5010354;28;20034;-72
2023/04/16 13:57:05;;;;;;;0.35;0.35;;;;;;;;;;4992785;28;20037;-72
2023/04/16 13:59:31;;;;;;;0.20;0.20;;;;;;;;;;5010500;28;20037;-73
2023/04/16 14:01:57;;;;;;;1.45;0.50;;;;;;;;;;4992462;28;20044;-73
2023/04/16 14:04:22;;;;;;;0.85;0.30;;;;;;;;;;5009858;28;20022;-73
2023/04/16 14:06:48;;;;;;;0.30;0.30;;;;;;;;;;5010101;28;20132;-73
2023/04/16 14:09:14;;;;;;;0.28;0.28;;;;;;;;;;5009919;28;20477;-73
2023/04/16 14:11:40;;;;;;;0.57;0.57;;;;;;;;;;4976273;28;20041;-73
2023/04/16 14:14:05;;;;;;;0.30;0.30;;;;;;;;;;5009979;28;20482;-72
2023/04/16 14:16:31;;;;;;;0.22;0.22;;;;;;;;;;5009850;28;20037;-72
2023/04/16 14:18:56;;;;;;;0.20;0.20;;;;;;;;;;4991874;28;20061;-72
2023/04/16 14:21:22;;;;;;;0.20;0.20;;;;;;;;;;5008182;28;20164;-74
2023/04/16 14:23:56;;;;;;;0.30;0.30;;;;;;;;;;4988673;28;20038;-72
2023/04/16 14:26:23;;;;;;;0.10;0.10;;;;;;;;;;5008495;28;20389;-72
2023/04/16 14:28:49;;;;;;;0.40;0.40;;;;;;;;;;5008946;28;20116;-71
2023/04/16 14:31:16;;;;;;;0.20;0.20;;;;;;;;;;5008885;28;20038;-71
2023/04/16 14:33:42;;;;;;;0.20;0.20;;;;;;;;;;5010351;28;20089;-73
2023/04/16 14:36:08;;;;;;;0.40;0.30;;;;;;;;;;5010791;28;20080;-71
2023/04/16 14:38:34;;;;;;;0.20;0.20;;;;;;;;;;5009949;28;20041;-71
2023/04/16 14:41:00;;;;;;;0.20;0.20;;;;;;;;;;5009587;28;20381;-72